createdAt,value
2018-07-06T00:02:15.014Z,76.90
2018-07-06T00:05:02.036Z,77.00
2018-07-06T00:10:41.171Z,77.30
2018-07-06T00:13:28.039Z,77.30
2018-07-06T00:16:15.258Z,77.50
2018-07-06T00:19:01.902Z,78.80
2018-07-06T00:21:49.070Z,77.60
2018-07-06T00:24:35.929Z,77.60
2018-07-06T00:27:23.686Z,75.80
2018-07-06T00:30:10.648Z,76.30
2018-07-06T00:36:07.125Z,74.90
2018-07-06T00:38:54.169Z,76.60
2018-07-06T00:42:11.629Z,76.00
2018-07-06T00:44:58.596Z,75.20
2018-07-06T00:47:46.702Z,77.10
2018-07-06T00:50:35.949Z,76.20
2018-07-06T00:53:23.766Z,76.00
2018-07-06T00:56:10.690Z,75.00
2018-07-06T00:58:57.393Z,76.10
2018-07-06T01:01:44.419Z,75.70
2018-07-06T01:04:31.321Z,75.90
2018-07-06T01:07:18.178Z,74.90
2018-07-06T01:10:05.213Z,75.30
2018-07-06T01:15:38.200Z,74.20
2018-07-06T01:18:24.891Z,73.50
2018-07-06T01:21:11.700Z,74.20
2018-07-06T01:23:58.702Z,73.60
2018-07-06T01:29:26.048Z,72.30
2018-07-06T01:35:05.998Z,73.80
2018-07-06T01:37:52.658Z,73.80
2018-07-06T01:40:39.642Z,70.00
2018-07-06T01:43:26.419Z,70.80
2018-07-06T01:46:13.650Z,71.70
2018-07-06T01:49:00.621Z,69.00
2018-07-06T01:51:47.584Z,70.80
2018-07-06T01:54:34.523Z,70.20
2018-07-06T01:57:21.224Z,69.10
2018-07-06T02:00:08.261Z,70.10
2018-07-06T02:02:55.190Z,70.80
2018-07-06T02:05:42.368Z,70.00
2018-07-06T02:08:29.463Z,71.60
2018-07-06T02:11:17.081Z,68.50
2018-07-06T02:14:04.011Z,68.10
2018-07-06T02:16:50.856Z,69.20
2018-07-06T02:19:37.955Z,70.10
2018-07-06T02:22:24.736Z,70.60
2018-07-06T02:25:11.551Z,70.60
2018-07-06T02:30:50.478Z,68.60
2018-07-06T02:33:37.277Z,68.40
2018-07-06T02:39:05.873Z,68.50
2018-07-06T02:41:53.312Z,67.50
2018-07-06T02:44:40.214Z,68.20
2018-07-06T02:47:27.102Z,68.60
2018-07-06T02:50:13.853Z,69.90
2018-07-06T02:53:00.937Z,67.80
2018-07-06T02:58:30.330Z,67.10
2018-07-06T03:03:58.284Z,67.40
2018-07-06T03:06:45.041Z,66.90
2018-07-06T03:09:31.915Z,66.30
2018-07-06T03:12:18.815Z,67.70
2018-07-06T03:15:05.656Z,68.10
2018-07-06T03:17:52.452Z,69.20
2018-07-06T03:23:20.141Z,70.30
2018-07-06T03:26:06.807Z,70.10
2018-07-06T03:28:53.843Z,69.00
2018-07-06T03:31:41.362Z,67.80
2018-07-06T03:34:28.503Z,68.40
2018-07-06T03:37:15.457Z,64.20
2018-07-06T03:40:02.292Z,64.60
2018-07-06T03:42:49.312Z,66.20
2018-07-06T03:48:18.289Z,66.20
2018-07-06T03:51:05.161Z,66.00
2018-07-06T03:53:52.828Z,67.90
2018-07-06T03:56:39.635Z,65.70
2018-07-06T03:59:26.900Z,68.60
2018-07-06T04:02:13.790Z,68.00
2018-07-06T04:10:39.384Z,65.60
2018-07-06T04:13:27.399Z,62.90
2018-07-06T04:16:14.187Z,63.20
2018-07-06T04:19:09.334Z,62.90
2018-07-06T04:24:43.436Z,65.60
2018-07-06T04:27:30.230Z,64.80
2018-07-06T04:33:12.841Z,67.50
2018-07-06T04:35:59.728Z,70.30
2018-07-06T04:38:48.269Z,70.10
2018-07-06T04:41:35.056Z,70.50
2018-07-06T04:44:22.035Z,71.70
2018-07-06T04:47:08.860Z,71.50
2018-07-06T04:49:55.849Z,73.60
2018-07-06T04:52:42.647Z,75.90
2018-07-06T04:55:29.355Z,74.40
2018-07-06T04:58:18.551Z,74.20
2018-07-06T05:01:06.253Z,73.40
2018-07-06T05:03:53.128Z,73.80
2018-07-06T05:06:40.188Z,74.90
2018-07-06T05:09:27.278Z,78.30
2018-07-06T05:12:14.062Z,75.20
2018-07-06T05:15:01.034Z,75.20
2018-07-06T05:17:48.100Z,75.60
2018-07-06T05:20:35.009Z,75.10
2018-07-06T05:23:21.822Z,75.60
2018-07-06T05:26:08.860Z,77.00
2018-07-06T05:28:55.797Z,77.00
2018-07-06T05:31:42.780Z,76.30
2018-07-06T05:37:10.679Z,77.70
2018-07-06T05:45:19.044Z,75.70
2018-07-06T05:48:06.744Z,74.80
2018-07-06T05:50:53.530Z,75.90
2018-07-06T05:53:40.593Z,75.40
2018-07-06T05:56:27.349Z,75.90
2018-07-06T05:59:14.077Z,75.90
2018-07-06T06:02:00.940Z,75.10
2018-07-06T06:04:47.788Z,75.60
2018-07-06T06:07:25.658Z,77.60
2018-07-06T06:09:57.084Z,76.70
2018-07-06T06:15:06.189Z,78.00
2018-07-06T06:17:36.048Z,77.10
2018-07-06T06:20:06.013Z,79.00
2018-07-06T06:22:36.933Z,76.70
2018-07-06T06:25:06.951Z,77.90
2018-07-06T06:30:06.759Z,76.10
2018-07-06T06:32:36.873Z,77.30
2018-07-06T06:35:06.765Z,76.10
2018-07-06T06:37:36.675Z,74.80
2018-07-06T06:40:06.517Z,75.20
2018-07-06T06:42:36.777Z,76.60
2018-07-06T06:45:06.617Z,76.00
2018-07-06T06:47:36.476Z,75.80
2018-07-06T06:50:06.413Z,75.80
2018-07-06T06:52:36.855Z,75.00
2018-07-06T06:55:06.738Z,75.30
2018-07-06T07:00:09.358Z,75.50
2018-07-06T07:02:39.361Z,77.00
2018-07-06T07:05:09.276Z,76.70
2018-07-06T07:07:39.209Z,77.30
2018-07-06T07:10:10.175Z,76.30
2018-07-06T07:12:40.050Z,76.80
2018-07-06T07:15:10.207Z,76.70
2018-07-06T07:17:40.148Z,77.00
2018-07-06T07:20:09.994Z,77.00
2018-07-06T07:22:40.056Z,77.10
2018-07-06T07:25:09.893Z,76.70
2018-07-06T07:27:40.491Z,77.60
2018-07-06T07:30:10.378Z,77.30
2018-07-06T07:32:40.155Z,77.50
2018-07-06T07:35:10.929Z,77.70
2018-07-06T07:37:40.707Z,79.50
2018-07-06T07:40:10.565Z,79.50
2018-07-06T07:45:09.774Z,80.60
2018-07-06T07:47:39.685Z,80.10
2018-07-06T07:50:09.479Z,79.60
2018-07-06T07:52:50.595Z,80.60
2018-07-06T07:55:21.468Z,79.30
2018-07-06T07:57:51.482Z,79.30
2018-07-06T08:00:21.704Z,79.80
2018-07-06T08:07:52.300Z,79.60
2018-07-06T08:10:22.558Z,79.20
2018-07-06T08:20:33.524Z,81.00
2018-07-06T08:23:04.531Z,81.10
2018-07-06T08:25:34.503Z,80.50
2018-07-06T08:28:05.672Z,80.00
2018-07-06T08:30:35.624Z,80.20
2018-07-06T08:33:06.142Z,80.60
2018-07-06T08:38:10.914Z,83.20
2018-07-06T08:40:41.671Z,83.70
2018-07-06T08:43:11.874Z,82.90
2018-07-06T08:45:41.957Z,81.80
2018-07-06T08:48:11.748Z,81.60
2018-07-06T08:50:41.720Z,80.40
2018-07-06T08:53:11.696Z,81.10
2018-07-06T08:58:11.528Z,81.00
2018-07-06T09:00:41.630Z,80.10
2018-07-06T09:03:11.834Z,79.60
2018-07-06T09:08:12.254Z,79.50
2018-07-06T09:10:42.305Z,80.30
2018-07-06T09:15:47.677Z,79.50
2018-07-06T09:18:17.664Z,79.30
2018-07-06T09:20:47.589Z,80.20
2018-07-06T09:23:17.992Z,80.20
2018-07-06T09:25:49.002Z,79.10
2018-07-06T09:28:18.558Z,80.50
2018-07-06T09:30:48.491Z,79.50
2018-07-06T09:33:18.395Z,78.50
2018-07-06T09:35:48.284Z,80.00
2018-07-06T09:38:18.135Z,78.70
2018-07-06T09:40:48.225Z,79.00
2018-07-06T09:48:23.562Z,79.50
2018-07-06T09:50:53.674Z,79.70
2018-07-06T09:53:23.169Z,81.20
2018-07-06T09:55:53.205Z,81.50
2018-07-06T10:03:33.802Z,80.20
2018-07-06T10:06:03.783Z,78.80
2018-07-06T10:08:33.790Z,80.80
2018-07-06T10:11:04.764Z,81.70
2018-07-06T10:13:34.449Z,82.60
2018-07-06T10:16:04.393Z,81.90
2018-07-06T10:18:34.094Z,81.80
2018-07-06T10:21:03.914Z,82.00
2018-07-06T10:23:33.752Z,83.20
2018-07-06T10:26:03.865Z,85.10
2018-07-06T10:30:49.487Z,85.80
2018-07-06T10:33:19.385Z,84.10
2018-07-06T10:35:48.993Z,84.10
2018-07-06T10:40:54.058Z,84.40
2018-07-06T10:45:53.056Z,86.20
2018-07-06T10:48:22.878Z,86.20
2018-07-06T10:50:52.541Z,85.50
2018-07-06T10:53:22.264Z,85.40
2018-07-06T10:55:53.685Z,84.70
2018-07-06T11:03:34.090Z,86.40
2018-07-06T11:06:04.086Z,85.00
2018-07-06T11:08:33.896Z,85.40
2018-07-06T11:11:03.696Z,85.40
2018-07-06T11:13:33.572Z,86.40
2018-07-06T11:16:07.402Z,86.20
2018-07-06T11:18:37.093Z,85.60
2018-07-06T11:21:07.046Z,85.60
2018-07-06T11:23:36.985Z,84.30
2018-07-06T11:26:06.948Z,83.60
2018-07-06T11:28:36.813Z,82.50
2018-07-06T11:31:06.736Z,82.50
2018-07-06T11:33:36.596Z,83.60
2018-07-06T11:36:06.577Z,83.80
2018-07-06T11:38:36.394Z,83.00
2018-07-06T11:41:07.088Z,83.50
2018-07-06T11:43:36.962Z,82.10
2018-07-06T11:46:07.040Z,83.80
2018-07-06T11:48:36.720Z,83.50
2018-07-06T11:53:36.021Z,84.00
2018-07-06T11:56:06.015Z,82.50
2018-07-06T11:58:36.056Z,83.50
2018-07-06T12:01:06.092Z,84.30
2018-07-06T12:03:36.357Z,83.20
2018-07-06T12:06:06.249Z,83.40
2018-07-06T12:08:36.263Z,82.80
2018-07-06T12:11:06.435Z,82.70
2018-07-06T12:13:36.241Z,81.10
2018-07-06T12:16:06.289Z,82.90
2018-07-06T12:18:36.266Z,82.00
2018-07-06T12:21:06.458Z,82.50
2018-07-06T12:23:37.594Z,84.30
2018-07-06T12:26:07.578Z,83.60
2018-07-06T12:28:37.393Z,84.50
2018-07-06T12:31:07.412Z,85.10
2018-07-06T12:33:37.169Z,84.60
2018-07-06T12:38:36.629Z,83.70
2018-07-06T12:41:06.708Z,84.60
2018-07-06T12:43:36.509Z,85.10
2018-07-06T12:46:06.444Z,84.30
2018-07-06T12:48:36.324Z,83.00
2018-07-06T12:51:06.059Z,81.50
2018-07-06T12:53:35.892Z,82.50
2018-07-06T12:56:05.717Z,83.00
2018-07-06T12:58:35.738Z,83.20
2018-07-06T13:01:05.504Z,83.70
2018-07-06T13:03:35.424Z,83.60
2018-07-06T13:06:05.457Z,85.00
2018-07-06T13:08:35.207Z,84.70
2018-07-06T13:11:05.923Z,84.50
2018-07-06T13:13:35.754Z,83.80
2018-07-06T13:16:06.129Z,84.40
2018-07-06T13:18:35.972Z,84.70
2018-07-06T13:23:35.162Z,84.00
2018-07-06T13:28:34.621Z,81.80
2018-07-06T13:31:04.672Z,82.60
2018-07-06T13:33:34.555Z,82.50
2018-07-06T13:36:04.373Z,82.20
2018-07-06T13:38:34.194Z,80.50
2018-07-06T13:41:04.191Z,80.60
2018-07-06T13:43:34.471Z,80.20
2018-07-06T13:46:04.248Z,79.80
2018-07-06T13:48:34.083Z,78.70
2018-07-06T13:51:03.816Z,77.00
2018-07-06T13:53:33.643Z,78.80
2018-07-06T13:56:03.396Z,77.90
2018-07-06T13:58:33.279Z,77.60
2018-07-06T14:01:06.349Z,75.20
2018-07-06T14:03:36.048Z,77.00
2018-07-06T14:06:05.892Z,78.60
2018-07-06T14:11:16.133Z,77.10
2018-07-06T14:13:45.936Z,77.40
2018-07-06T14:16:15.655Z,74.80
2018-07-06T14:18:45.460Z,76.70
2018-07-06T14:21:15.290Z,74.00
2018-07-06T14:23:45.280Z,73.70
2018-07-06T14:26:15.302Z,72.90
2018-07-06T14:28:45.209Z,73.90
2018-07-06T14:31:15.016Z,74.10
2018-07-06T14:33:44.700Z,74.50
2018-07-06T14:36:14.527Z,72.60
2018-07-06T14:41:15.728Z,72.60
2018-07-06T14:43:45.584Z,71.60
2018-07-06T14:46:15.478Z,71.90
2018-07-06T14:48:45.353Z,72.20
2018-07-06T14:51:15.178Z,71.10
2018-07-06T14:53:48.107Z,70.50
2018-07-06T14:56:17.988Z,71.30
2018-07-06T14:58:48.088Z,72.20
2018-07-06T15:01:18.102Z,73.00
2018-07-06T15:03:48.679Z,71.40
2018-07-06T15:06:18.672Z,72.30
2018-07-06T15:08:48.513Z,72.50
2018-07-06T15:11:18.764Z,72.10
2018-07-06T15:13:49.202Z,72.40
2018-07-06T15:16:19.049Z,72.60
2018-07-06T15:18:49.199Z,71.40
2018-07-06T15:21:18.999Z,72.30
2018-07-06T15:23:48.931Z,71.60
2018-07-06T15:26:19.056Z,70.20
2018-07-06T15:28:49.156Z,70.80
2018-07-06T15:31:19.087Z,71.50
2018-07-06T15:33:49.244Z,71.60
2018-07-06T15:36:19.266Z,70.90
2018-07-06T15:38:49.232Z,71.40
2018-07-06T15:41:19.369Z,71.50
2018-07-06T15:43:49.268Z,70.70
2018-07-06T15:46:19.328Z,70.30
2018-07-06T15:48:50.002Z,71.10
2018-07-06T15:51:19.908Z,71.10
2018-07-06T15:53:49.583Z,72.10
2018-07-06T15:56:19.465Z,72.10
2018-07-06T15:58:56.414Z,70.00
2018-07-06T16:01:26.141Z,70.50
2018-07-06T16:03:56.008Z,71.10
2018-07-06T16:06:25.773Z,70.80
2018-07-06T16:08:55.723Z,70.50
2018-07-06T16:11:25.559Z,69.30
2018-07-06T16:13:55.351Z,70.80
2018-07-06T16:16:25.116Z,69.30
2018-07-06T16:18:55.297Z,69.90
2018-07-06T16:21:25.342Z,70.20
2018-07-06T16:23:55.165Z,70.30
2018-07-06T16:26:24.969Z,69.90
2018-07-06T16:28:54.699Z,71.20
2018-07-06T16:31:24.528Z,69.70
2018-07-06T16:33:54.604Z,68.30
2018-07-06T16:36:24.610Z,68.20
2018-07-06T16:38:54.377Z,69.30
2018-07-06T16:43:53.713Z,68.50
2018-07-06T16:46:23.574Z,66.60
2018-07-06T16:48:53.443Z,67.70
2018-07-06T16:51:23.298Z,68.00
2018-07-06T16:53:53.266Z,66.40
2018-07-06T16:56:23.066Z,65.30
2018-07-06T16:58:53.234Z,65.90
2018-07-06T17:01:23.133Z,65.40
2018-07-06T17:06:22.650Z,68.00
2018-07-06T17:08:52.424Z,66.90
2018-07-06T17:11:22.598Z,67.30
2018-07-06T17:13:52.869Z,66.70
2018-07-06T17:16:22.776Z,66.80
2018-07-06T17:18:52.697Z,67.30
2018-07-06T17:21:22.578Z,68.00
2018-07-06T17:23:52.508Z,67.30
2018-07-06T17:26:22.502Z,66.40
2018-07-06T17:28:52.806Z,65.50
2018-07-06T17:31:22.976Z,65.40
2018-07-06T17:33:53.093Z,63.60
2018-07-06T17:36:22.922Z,63.60
2018-07-06T17:38:52.952Z,64.00
2018-07-06T17:41:24.610Z,63.60
2018-07-06T17:43:54.645Z,63.30
2018-07-06T17:46:29.110Z,65.80
2018-07-06T17:48:59.603Z,63.90
2018-07-06T17:54:10.725Z,65.80
2018-07-06T17:56:40.707Z,64.80
2018-07-06T17:59:10.597Z,63.90
2018-07-06T18:01:40.795Z,63.70
2018-07-06T18:04:10.829Z,66.10
2018-07-06T18:06:40.861Z,64.70
2018-07-06T18:09:10.838Z,66.60
2018-07-06T18:11:40.748Z,66.20
2018-07-06T18:14:10.733Z,66.70
2018-07-06T18:16:41.056Z,65.20
2018-07-06T18:19:11.057Z,65.60
2018-07-06T18:21:41.230Z,66.10
2018-07-06T18:26:42.607Z,64.50
2018-07-06T18:29:19.477Z,66.80
2018-07-06T18:31:49.500Z,66.90
2018-07-06T18:34:22.167Z,66.30
2018-07-06T18:36:53.996Z,65.50
2018-07-06T18:39:24.529Z,66.40
2018-07-06T18:41:55.399Z,66.20
2018-07-06T18:48:04.075Z,63.50
2018-07-06T18:50:36.132Z,65.00
2018-07-06T18:53:09.453Z,64.90
2018-07-06T18:55:39.884Z,65.00
2018-07-06T18:58:10.102Z,66.60
2018-07-06T19:00:41.996Z,65.00
2018-07-06T19:03:11.936Z,66.20
2018-07-06T19:05:41.699Z,64.80
2018-07-06T19:13:45.796Z,64.00
2018-07-06T19:16:17.771Z,64.60
2018-07-06T19:18:48.199Z,65.40
2018-07-06T19:21:18.756Z,65.80
2018-07-06T19:26:25.852Z,64.10
2018-07-06T19:28:55.745Z,64.50
2018-07-06T19:31:27.442Z,64.80
2018-07-06T19:33:57.305Z,63.80
2018-07-06T19:36:28.359Z,63.50
2018-07-06T19:41:28.176Z,64.50
2018-07-06T19:43:59.230Z,64.90
2018-07-06T19:49:24.407Z,64.40
2018-07-06T19:51:55.320Z,64.20
2018-07-06T19:54:25.154Z,65.00
2018-07-06T19:56:55.302Z,64.90
2018-07-06T19:59:26.624Z,64.60
2018-07-06T20:01:57.720Z,64.20
2018-07-06T20:04:29.404Z,64.70
2018-07-06T20:07:00.160Z,66.80
2018-07-06T20:09:30.446Z,66.90
2018-07-06T20:12:00.520Z,65.90
2018-07-06T20:17:42.903Z,64.40
2018-07-06T20:20:13.701Z,65.30
2018-07-06T20:22:43.847Z,66.60
2018-07-06T20:25:16.625Z,65.20
2018-07-06T20:27:46.812Z,65.00
2018-07-06T20:30:18.365Z,65.90
2018-07-06T20:32:48.221Z,66.00
2018-07-06T20:35:18.870Z,66.70
2018-07-06T20:37:49.624Z,67.10
2018-07-06T20:40:20.563Z,66.00
2018-07-06T20:42:51.162Z,65.90
2018-07-06T20:45:21.202Z,65.90
2018-07-06T20:47:51.298Z,64.60
2018-07-06T20:50:21.209Z,63.70
2018-07-06T20:52:51.079Z,65.50
2018-07-06T20:55:21.121Z,65.20
2018-07-06T20:57:51.787Z,64.60
2018-07-06T21:00:22.506Z,64.60
2018-07-06T21:02:52.525Z,63.80
2018-07-06T21:07:59.458Z,64.00
2018-07-06T21:10:29.747Z,63.70
2018-07-06T21:13:01.216Z,64.70
2018-07-06T21:15:31.214Z,63.20
2018-07-06T21:18:01.129Z,63.30
2018-07-06T21:20:31.142Z,63.30
2018-07-06T21:23:03.050Z,62.20
2018-07-06T21:25:33.175Z,61.30
2018-07-06T21:28:03.882Z,63.80
2018-07-06T21:30:34.179Z,64.10
2018-07-06T21:33:04.456Z,65.30
2018-07-06T21:35:34.571Z,64.40
2018-07-06T21:38:04.726Z,64.30
2018-07-06T21:40:34.712Z,64.40
2018-07-06T21:43:04.515Z,64.80
2018-07-06T21:45:34.664Z,63.50
2018-07-06T21:48:04.654Z,62.80
2018-07-06T21:50:34.672Z,62.80
2018-07-06T21:53:04.893Z,62.90
2018-07-06T21:55:34.848Z,63.30
2018-07-06T21:58:04.979Z,61.90
2018-07-06T22:03:11.066Z,62.70
2018-07-06T22:05:41.932Z,62.80
2018-07-06T22:10:41.714Z,62.80
2018-07-06T22:13:11.815Z,64.30
2018-07-06T22:15:44.662Z,64.00
2018-07-06T22:20:51.023Z,64.90
2018-07-06T22:23:20.911Z,65.10
2018-07-06T22:25:51.038Z,65.20
2018-07-06T22:28:20.929Z,65.90
2018-07-06T22:30:50.804Z,65.70
2018-07-06T22:33:20.849Z,65.00
2018-07-06T22:35:50.793Z,64.70
2018-07-06T22:38:20.822Z,64.70
2018-07-06T22:40:51.875Z,67.30
2018-07-06T22:43:22.115Z,66.40
2018-07-06T22:45:52.005Z,66.80
2018-07-06T22:48:22.235Z,67.20
2018-07-06T22:50:52.276Z,67.20
2018-07-06T22:53:22.203Z,66.60
2018-07-06T22:55:52.303Z,66.90
2018-07-06T22:58:22.430Z,65.90
2018-07-06T23:00:52.284Z,66.30
2018-07-06T23:03:22.347Z,65.10
2018-07-06T23:05:52.367Z,65.00
2018-07-06T23:08:22.414Z,65.40
2018-07-06T23:13:22.077Z,65.60
2018-07-06T23:15:52.019Z,64.80
2018-07-06T23:18:22.057Z,65.10
2018-07-06T23:20:52.034Z,64.10
2018-07-06T23:23:22.183Z,64.90
2018-07-06T23:25:52.663Z,64.10
2018-07-06T23:28:22.576Z,65.90
2018-07-06T23:30:52.452Z,64.80
2018-07-06T23:33:22.432Z,64.70
2018-07-06T23:35:52.596Z,66.10
2018-07-06T23:38:22.450Z,65.90
2018-07-06T23:43:21.971Z,65.70
2018-07-06T23:45:53.260Z,65.30
2018-07-06T23:48:23.198Z,65.60
2018-07-06T23:50:53.134Z,66.40
2018-07-06T23:53:22.969Z,66.10
2018-07-06T23:55:52.880Z,66.80
2018-07-06T23:58:22.877Z,67.00
